Time;durP1;ratioP1;P1;durP2;ratioP2;P2;SDS_P1;SDS_P2;PMS_P1;PMS_P2;Temp;Humidity;BMP_temperature;BMP_pressure;BME280_temperature;BME280_humidity;BME280_pressure;Samples;Min_cycle;Max_cycle;Signal;HPM_P1;HPM_P2
2021/12/18 00:00:59;;;;;;;;;;;13.40;99.90;;;;;;5012007;28;939;-53
2021/12/18 00:03:25;;;;;;;;;;;13.40;99.90;;;;;;5017306;28;927;-54
2021/12/18 00:05:51;;;;;;;;;;;13.40;99.90;;;;;;5035710;28;847;-54
2021/12/18 00:08:18;;;;;;;;;;;13.40;99.90;;;;;;5035727;28;934;-54
2021/12/18 00:10:45;;;;;;;;;;;13.40;99.90;;;;;;5035004;28;949;-53
2021/12/18 00:13:13;;;;;;;;;;;13.40;99.90;;;;;;5035866;28;1124;-53
2021/12/18 00:15:41;;;;;;;;;;;13.40;99.90;;;;;;5035563;28;917;-53
2021/12/18 00:18:09;;;;;;;;;;;13.30;99.90;;;;;;5035006;28;1902;-53
2021/12/18 00:20:38;;;;;;;;;;;13.40;99.90;;;;;;5034389;28;861;-53
2021/12/18 00:23:05;;;;;;;;;;;13.30;99.90;;;;;;4999544;28;1631;-53
2021/12/18 00:25:32;;;;;;;;;;;13.30;99.90;;;;;;4999583;28;995;-53
2021/12/18 00:27:58;;;;;;;;;;;13.30;99.90;;;;;;5017296;28;1032;-53
2021/12/18 00:30:24;;;;;;;;;;;13.30;99.90;;;;;;5017284;28;864;-53
2021/12/18 00:32:51;;;;;;;;;;;13.30;99.90;;;;;;5017129;28;1015;-53
2021/12/18 00:35:17;;;;;;;;;;;13.30;99.90;;;;;;5017330;28;880;-54
2021/12/18 00:37:44;;;;;;;;;;;13.30;99.90;;;;;;4999253;28;1907;-53
2021/12/18 00:40:18;;;;;;;;;;;13.30;99.90;;;;;;5017419;28;877;-53
2021/12/18 00:42:56;;;;;;;;;;;13.30;99.90;;;;;;4999389;28;1120;-53
2021/12/18 00:45:23;;;;;;;;;;;13.30;99.90;;;;;;5016676;28;903;-53
2021/12/18 00:47:50;;;;;;;;;;;13.30;99.90;;;;;;5013237;28;818;-53
2021/12/18 00:50:18;;;;;;;;;;;13.30;99.90;;;;;;5017052;28;959;-53
2021/12/18 00:52:46;;;;;;;;;;;13.30;99.90;;;;;;5015396;28;1012;-53
2021/12/18 00:55:12;;;;;;;;;;;13.20;99.90;;;;;;4999146;28;995;-53
2021/12/18 00:57:38;;;;;;;;;;;13.20;99.90;;;;;;5035091;28;1906;-53
2021/12/18 01:00:08;;;;;;;;;;;13.20;99.90;;;;;;5028022;28;1312;-53
2021/12/18 01:02:36;;;;;;;;;;;13.20;99.90;;;;;;5034385;28;870;-53
2021/12/18 01:05:03;;;;;;;;;;;13.20;99.90;;;;;;5034341;28;1030;-53
2021/12/18 01:07:29;;;;;;;;;;;13.20;99.90;;;;;;5034977;28;857;-53
2021/12/18 01:12:29;;;;;;;;;;;13.10;99.90;;;;;;5023648;28;905;-53
2021/12/18 01:15:23;;;;;;;;;;;13.10;99.90;;;;;;5013944;28;944;-54
2021/12/18 01:23:14;;;;;;;;;;;13.10;99.90;;;;;;5018225;28;1166;-54
2021/12/18 01:25:40;;;;;;;;;;;13.10;99.90;;;;;;5020465;28;936;-54
2021/12/18 01:28:06;;;;;;;;;;;13.10;99.90;;;;;;5020735;28;799;-53
2021/12/18 01:30:33;;;;;;;;;;;13.10;99.90;;;;;;5018251;28;973;-53
2021/12/18 01:33:00;;;;;;;;;;;13.10;99.90;;;;;;5038538;28;917;-53
2021/12/18 01:35:28;;;;;;;;;;;13.10;99.90;;;;;;5038110;28;905;-53
2021/12/18 01:37:57;;;;;;;;;;;13.10;99.90;;;;;;5038408;28;1906;-53
2021/12/18 01:40:25;;;;;;;;;;;13.10;99.90;;;;;;5038354;28;868;-54
2021/12/18 01:43:52;;;;;;;;;;;13.00;99.90;;;;;;5038401;28;909;-53
2021/12/18 01:51:20;;;;;;;;;;;13.00;99.90;;;;;;5032019;28;904;-53
2021/12/18 01:53:49;;;;;;;;;;;13.00;99.90;;;;;;5020455;28;832;-53
2021/12/18 01:56:16;;;;;;;;;;;13.00;99.90;;;;;;5020311;28;904;-53
2021/12/18 01:58:44;;;;;;;;;;;13.00;99.90;;;;;;5019974;28;1918;-53
2021/12/18 02:01:11;;;;;;;;;;;13.00;99.90;;;;;;5019899;28;979;-53
2021/12/18 02:03:36;;;;;;;;;;;13.00;99.90;;;;;;5019709;28;944;-53
2021/12/18 02:06:03;;;;;;;;;;;13.00;99.90;;;;;;5019781;28;866;-53
2021/12/18 02:08:33;;;;;;;;;;;13.00;99.90;;;;;;5019689;28;1058;-53
2021/12/18 02:11:45;;;;;;;;;;;13.00;99.90;;;;;;5014970;28;804;-53
2021/12/18 02:22:02;;;;;;;;;;;12.90;99.90;;;;;;5019613;28;1391;-54
2021/12/18 02:24:32;;;;;;;;;;;12.90;99.90;;;;;;5019560;28;940;-54
2021/12/18 02:27:00;;;;;;;;;;;12.90;99.90;;;;;;5019166;28;1295;-53
2021/12/18 02:29:30;;;;;;;;;;;12.90;99.90;;;;;;5001634;28;934;-53
2021/12/18 02:31:58;;;;;;;;;;;12.90;99.90;;;;;;5018693;28;910;-53
2021/12/18 02:34:30;;;;;;;;;;;12.90;99.90;;;;;;5018196;28;850;-53
2021/12/18 02:37:05;;;;;;;;;;;12.90;99.90;;;;;;5019288;28;881;-53
2021/12/18 02:42:32;;;;;;;;;;;12.90;99.90;;;;;;4975973;28;1280;-54
2021/12/18 02:45:00;;;;;;;;;;;12.90;99.90;;;;;;5017522;28;2365;-53
2021/12/18 02:47:28;;;;;;;;;;;12.90;99.90;;;;;;5018999;28;857;-53
2021/12/18 02:49:54;;;;;;;;;;;12.90;99.90;;;;;;5018912;28;924;-53
2021/12/18 02:52:40;;;;;;;;;;;12.90;99.90;;;;;;5018496;28;833;-53
2021/12/18 02:55:07;;;;;;;;;;;12.90;99.90;;;;;;5018502;28;858;-53
2021/12/18 02:57:34;;;;;;;;;;;12.90;99.90;;;;;;5018028;28;1965;-53
2021/12/18 03:00:01;;;;;;;;;;;12.90;99.90;;;;;;5018137;28;915;-53
2021/12/18 03:02:36;;;;;;;;;;;12.90;99.90;;;;;;5017276;28;991;-53
2021/12/18 03:05:06;;;;;;;;;;;12.90;99.90;;;;;;5018565;28;1004;-53
2021/12/18 03:07:34;;;;;;;;;;;12.90;99.90;;;;;;5018276;28;995;-54
2021/12/18 03:26:44;;;;;;;;;;;12.80;99.90;;;;;;4982091;28;996;-53
2021/12/18 03:29:10;;;;;;;;;;;12.80;99.90;;;;;;5018304;28;889;-53
2021/12/18 03:31:37;;;;;;;;;;;12.80;99.90;;;;;;5018198;28;884;-53
2021/12/18 03:34:04;;;;;;;;;;;12.80;99.90;;;;;;5018062;28;911;-53
2021/12/18 03:36:30;;;;;;;;;;;12.80;99.90;;;;;;5018130;28;932;-53
2021/12/18 03:39:03;;;;;;;;;;;12.80;99.90;;;;;;5018424;28;1907;-53
2021/12/18 03:41:31;;;;;;;;;;;12.80;99.90;;;;;;5017963;28;888;-53
2021/12/18 03:43:57;;;;;;;;;;;12.80;99.90;;;;;;5018214;28;932;-53
2021/12/18 03:46:23;;;;;;;;;;;12.80;99.90;;;;;;5015674;28;1019;-53
2021/12/18 03:48:49;;;;;;;;;;;12.80;99.90;;;;;;5018295;28;1418;-54
2021/12/18 03:51:15;;;;;;;;;;;12.80;99.90;;;;;;5027786;28;822;-53
2021/12/18 03:53:41;;;;;;;;;;;12.80;99.90;;;;;;5017339;28;1009;-53
2021/12/18 03:56:08;;;;;;;;;;;12.80;99.90;;;;;;5018089;28;952;-53
2021/12/18 03:58:35;;;;;;;;;;;12.80;99.90;;;;;;5017791;28;1914;-53
2021/12/18 04:01:02;;;;;;;;;;;12.80;99.90;;;;;;5018152;28;1149;-53
2021/12/18 04:03:29;;;;;;;;;;;12.80;99.90;;;;;;5017678;28;878;-53
2021/12/18 04:05:55;;;;;;;;;;;12.80;99.90;;;;;;5017519;28;833;-53
2021/12/18 04:08:22;;;;;;;;;;;12.70;99.90;;;;;;5014555;28;902;-53
2021/12/18 04:10:48;;;;;;;;;;;12.70;99.90;;;;;;5014510;28;936;-53
2021/12/18 04:13:14;;;;;;;;;;;12.70;99.90;;;;;;5017784;28;889;-53
2021/12/18 04:15:41;;;;;;;;;;;12.70;99.90;;;;;;5017432;28;888;-53
2021/12/18 04:18:09;;;;;;;;;;;12.70;99.90;;;;;;5017357;28;1946;-53
2021/12/18 04:20:36;;;;;;;;;;;12.70;99.90;;;;;;5017268;28;869;-53
2021/12/18 04:23:04;;;;;;;;;;;12.70;99.90;;;;;;5017290;28;1119;-53
2021/12/18 04:25:30;;;;;;;;;;;12.70;99.90;;;;;;5017615;28;817;-53
2021/12/18 04:27:56;;;;;;;;;;;12.70;99.90;;;;;;5013993;28;941;-53
2021/12/18 04:30:22;;;;;;;;;;;12.70;99.90;;;;;;5017202;28;1611;-53
2021/12/18 04:32:48;;;;;;;;;;;12.70;99.90;;;;;;5017177;28;865;-54
2021/12/18 04:35:14;;;;;;;;;;;12.70;99.90;;;;;;5017059;28;868;-53
2021/12/18 04:37:41;;;;;;;;;;;12.60;99.90;;;;;;5017444;28;1975;-53
2021/12/18 04:40:09;;;;;;;;;;;12.60;99.90;;;;;;5017470;28;1292;-53
2021/12/18 04:42:36;;;;;;;;;;;12.60;99.90;;;;;;5016739;28;957;-53
2021/12/18 04:45:04;;;;;;;;;;;12.60;99.90;;;;;;5017384;28;813;-53
2021/12/18 04:47:30;;;;;;;;;;;12.60;99.90;;;;;;5017015;28;869;-53
2021/12/18 04:49:56;;;;;;;;;;;12.60;99.90;;;;;;5016701;28;955;-53
2021/12/18 04:52:22;;;;;;;;;;;12.60;99.90;;;;;;5016962;28;829;-53
2021/12/18 04:54:49;;;;;;;;;;;12.60;99.90;;;;;;5017356;28;853;-53
2021/12/18 04:57:15;;;;;;;;;;;12.60;99.90;;;;;;5015507;28;932;-53
2021/12/18 04:59:44;;;;;;;;;;;12.60;99.90;;;;;;5017073;28;1895;-53
2021/12/18 05:02:14;;;;;;;;;;;12.60;99.90;;;;;;5017170;28;857;-53
2021/12/18 05:04:42;;;;;;;;;;;12.60;99.90;;;;;;5016579;28;1190;-53
2021/12/18 05:07:10;;;;;;;;;;;12.60;99.90;;;;;;5016859;28;1449;-53
2021/12/18 05:09:41;;;;;;;;;;;12.60;99.90;;;;;;5016815;28;804;-53
2021/12/18 05:12:10;;;;;;;;;;;12.60;99.90;;;;;;5016908;28;1093;-53
2021/12/18 05:14:38;;;;;;;;;;;12.60;99.90;;;;;;5016766;28;920;-53
2021/12/18 05:17:05;;;;;;;;;;;12.60;99.90;;;;;;5016789;28;888;-53
2021/12/18 05:19:31;;;;;;;;;;;12.60;99.90;;;;;;5016641;28;1894;-53
2021/12/18 05:21:57;;;;;;;;;;;12.60;99.90;;;;;;5016459;28;1051;-53
2021/12/18 05:24:24;;;;;;;;;;;12.70;99.90;;;;;;5016970;28;964;-53
2021/12/18 05:26:50;;;;;;;;;;;12.70;99.90;;;;;;5016886;28;925;-53
2021/12/18 05:29:15;;;;;;;;;;;12.70;99.90;;;;;;5016523;28;877;-53
2021/12/18 05:31:43;;;;;;;;;;;12.60;99.90;;;;;;5016322;28;947;-53
2021/12/18 05:34:11;;;;;;;;;;;12.60;99.90;;;;;;5015476;28;1112;-53
2021/12/18 05:39:27;;;;;;;;;;;12.70;99.90;;;;;;5016482;28;1969;-53
2021/12/18 05:41:53;;;;;;;;;;;12.70;99.90;;;;;;5016951;28;841;-53
2021/12/18 05:44:20;;;;;;;;;;;12.60;99.90;;;;;;5017032;28;880;-53
2021/12/18 05:46:46;;;;;;;;;;;12.60;99.90;;;;;;5016442;28;805;-53
2021/12/18 05:49:14;;;;;;;;;;;12.60;99.90;;;;;;5016287;28;908;-53
2021/12/18 05:51:42;;;;;;;;;;;12.60;99.90;;;;;;5015213;28;929;-53
2021/12/18 05:54:11;;;;;;;;;;;12.60;99.90;;;;;;5016284;28;872;-53
2021/12/18 05:56:40;;;;;;;;;;;12.60;99.90;;;;;;5016980;28;982;-53
2021/12/18 05:59:07;;;;;;;;;;;12.60;99.90;;;;;;4995091;28;1993;-53
2021/12/18 06:01:34;;;;;;;;;;;12.60;99.90;;;;;;4995172;28;893;-53
2021/12/18 06:04:02;;;;;;;;;;;12.60;99.90;;;;;;4994829;28;965;-53
2021/12/18 06:06:30;;;;;;;;;;;12.60;99.90;;;;;;4995090;28;866;-53
2021/12/18 06:08:56;;;;;;;;;;;12.60;99.90;;;;;;4996100;28;904;-55
2021/12/18 06:11:22;;;;;;;;;;;12.60;99.90;;;;;;4998550;28;890;-55
2021/12/18 06:13:52;;;;;;;;;;;12.60;99.90;;;;;;4998166;28;1027;-55
2021/12/18 06:16:18;;;;;;;;;;;12.60;99.90;;;;;;4997748;28;877;-55
2021/12/18 06:18:49;;;;;;;;;;;12.60;99.90;;;;;;4998149;28;1907;-55
2021/12/18 06:21:17;;;;;;;;;;;12.60;99.90;;;;;;5009614;28;1143;-55
2021/12/18 06:23:44;;;;;;;;;;;12.60;99.90;;;;;;4996886;28;984;-55
2021/12/18 06:26:13;;;;;;;;;;;12.50;99.90;;;;;;4997928;28;963;-55
2021/12/18 06:28:39;;;;;;;;;;;12.50;99.90;;;;;;4996139;28;860;-55
2021/12/18 06:31:05;;;;;;;;;;;12.50;99.90;;;;;;5015496;28;936;-55
2021/12/18 06:33:31;;;;;;;;;;;12.50;99.90;;;;;;5037529;28;873;-55
2021/12/18 06:35:58;;;;;;;;;;;12.50;99.90;;;;;;5037392;28;857;-55
2021/12/18 06:38:26;;;;;;;;;;;12.50;99.90;;;;;;5037359;28;1898;-55
2021/12/18 06:40:53;;;;;;;;;;;12.50;99.90;;;;;;5037649;28;890;-55
2021/12/18 06:43:20;;;;;;;;;;;12.50;99.90;;;;;;5037539;28;949;-55
2021/12/18 06:45:46;;;;;;;;;;;12.50;99.90;;;;;;5037504;28;836;-55
2021/12/18 06:48:12;;;;;;;;;;;12.50;99.90;;;;;;5037094;28;905;-55
2021/12/18 06:50:38;;;;;;;;;;;12.50;99.90;;;;;;5035514;28;890;-55
2021/12/18 06:53:05;;;;;;;;;;;12.50;99.90;;;;;;5019294;28;830;-55
2021/12/18 06:55:32;;;;;;;;;;;12.50;99.90;;;;;;5018618;28;840;-55
2021/12/18 06:57:59;;;;;;;;;;;12.50;99.90;;;;;;5018395;28;1902;-55
2021/12/18 07:00:28;;;;;;;;;;;12.50;99.90;;;;;;5018860;28;998;-55
2021/12/18 07:02:55;;;;;;;;;;;12.40;99.90;;;;;;5018868;28;1258;-55
2021/12/18 07:05:21;;;;;;;;;;;12.40;99.90;;;;;;5018454;28;872;-55
2021/12/18 07:07:47;;;;;;;;;;;12.50;99.90;;;;;;5018984;28;869;-55
2021/12/18 07:10:14;;;;;;;;;;;12.40;99.90;;;;;;5017481;28;899;-55
2021/12/18 07:12:41;;;;;;;;;;;12.40;99.90;;;;;;5018927;28;818;-55
2021/12/18 07:15:07;;;;;;;;;;;12.40;99.90;;;;;;5018873;28;861;-54
2021/12/18 07:17:33;;;;;;;;;;;12.40;99.90;;;;;;5018568;28;1520;-55
2021/12/18 07:20:00;;;;;;;;;;;12.40;99.90;;;;;;5018270;28;1911;-55
2021/12/18 07:22:27;;;;;;;;;;;12.50;99.90;;;;;;5018426;28;1074;-55
2021/12/18 07:24:54;;;;;;;;;;;12.50;99.90;;;;;;5018483;28;876;-55
2021/12/18 07:27:20;;;;;;;;;;;12.50;99.90;;;;;;5018365;28;863;-55
2021/12/18 07:29:46;;;;;;;;;;;12.50;99.90;;;;;;4961686;28;1119;-55
2021/12/18 07:32:13;;;;;;;;;;;12.60;99.90;;;;;;4977591;28;877;-53
2021/12/18 07:34:40;;;;;;;;;;;12.60;99.90;;;;;;4977324;28;924;-53
2021/12/18 07:37:06;;;;;;;;;;;12.60;99.90;;;;;;4961645;28;1375;-54
2021/12/18 07:39:32;;;;;;;;;;;12.70;99.90;;;;;;4975395;28;1918;-53
2021/12/18 07:41:59;;;;;;;;;;;12.70;99.90;;;;;;4977578;28;962;-53
2021/12/18 07:44:27;;;;;;;;;;;12.80;99.90;;;;;;4977491;28;1110;-53
2021/12/18 07:46:54;;;;;;;;;;;12.90;99.90;;;;;;4961015;28;1059;-55
2021/12/18 07:49:20;;;;;;;;;;;13.00;99.90;;;;;;4944833;28;1252;-55
2021/12/18 07:51:46;;;;;;;;;;;13.10;99.90;;;;;;4945096;28;918;-53
2021/12/18 07:54:12;;;;;;;;;;;13.30;99.90;;;;;;4977201;28;994;-53
2021/12/18 07:56:38;;;;;;;;;;;13.40;99.90;;;;;;4977227;28;832;-55
2021/12/18 07:59:04;;;;;;;;;;;13.60;99.90;;;;;;4977169;28;1982;-55
2021/12/18 08:01:31;;;;;;;;;;;13.70;99.90;;;;;;5009561;28;859;-55
2021/12/18 08:03:58;;;;;;;;;;;13.80;99.90;;;;;;5016733;28;829;-55
2021/12/18 08:06:25;;;;;;;;;;;14.00;99.90;;;;;;5017630;28;853;-55
2021/12/18 08:08:51;;;;;;;;;;;14.10;99.90;;;;;;5017772;28;821;-55
2021/12/18 08:11:17;;;;;;;;;;;14.20;99.90;;;;;;4999869;28;1123;-55
2021/12/18 08:13:43;;;;;;;;;;;14.40;99.90;;;;;;5017815;28;875;-55
2021/12/18 08:16:09;;;;;;;;;;;14.60;99.90;;;;;;5016514;28;1020;-55
2021/12/18 08:18:34;;;;;;;;;;;14.60;99.90;;;;;;5017509;28;1914;-55
2021/12/18 08:21:01;;;;;;;;;;;14.80;99.90;;;;;;5017061;28;1142;-54
2021/12/18 08:23:28;;;;;;;;;;;14.90;99.90;;;;;;5017406;28;881;-55
2021/12/18 08:25:54;;;;;;;;;;;15.00;99.90;;;;;;5017753;28;840;-55
2021/12/18 08:28:20;;;;;;;;;;;15.10;99.90;;;;;;5016014;28;1000;-55
2021/12/18 08:30:46;;;;;;;;;;;15.20;99.90;;;;;;5016873;28;888;-55
2021/12/18 08:33:12;;;;;;;;;;;15.30;99.90;;;;;;5016349;28;884;-55
2021/12/18 08:35:38;;;;;;;;;;;15.40;99.90;;;;;;5016873;28;873;-54
2021/12/18 08:38:05;;;;;;;;;;;15.50;99.90;;;;;;5017352;28;765;-53
2021/12/18 08:40:32;;;;;;;;;;;15.50;99.90;;;;;;5017224;28;908;-53
2021/12/18 08:43:00;;;;;;;;;;;15.50;99.90;;;;;;5016267;28;889;-53
2021/12/18 08:45:28;;;;;;;;;;;15.50;99.90;;;;;;4995955;28;873;-53
2021/12/18 08:47:55;;;;;;;;;;;15.50;99.90;;;;;;4995404;28;840;-54
2021/12/18 08:50:21;;;;;;;;;;;15.40;99.90;;;;;;4995710;28;987;-54
2021/12/18 08:52:48;;;;;;;;;;;15.40;99.90;;;;;;4995778;28;906;-55
2021/12/18 08:55:17;;;;;;;;;;;15.30;99.90;;;;;;4995725;28;871;-54
2021/12/18 08:57:43;;;;;;;;;;;15.30;99.90;;;;;;4995229;28;1024;-55
2021/12/18 09:00:10;;;;;;;;;;;15.20;99.90;;;;;;4978777;28;1971;-55
2021/12/18 09:02:36;;;;;;;;;;;15.20;99.90;;;;;;4995750;28;918;-55
2021/12/18 09:05:04;;;;;;;;;;;15.10;99.90;;;;;;4995414;28;917;-54
2021/12/18 09:07:31;;;;;;;;;;;15.10;99.90;;;;;;4990703;28;863;-55
2021/12/18 09:09:59;;;;;;;;;;;15.00;99.90;;;;;;4990230;28;934;-54
2021/12/18 09:12:25;;;;;;;;;;;15.00;99.90;;;;;;4970089;28;1284;-53
2021/12/18 09:14:52;;;;;;;;;;;14.90;99.90;;;;;;4922505;28;930;-53
2021/12/18 09:17:19;;;;;;;;;;;14.90;99.90;;;;;;4973577;28;909;-53
2021/12/18 09:19:46;;;;;;;;;;;14.80;99.90;;;;;;4975843;28;1976;-54
2021/12/18 09:22:12;;;;;;;;;;;14.80;99.90;;;;;;4969234;28;1242;-54
2021/12/18 09:24:38;;;;;;;;;;;14.70;99.90;;;;;;4950553;29;1371;-53
2021/12/18 09:27:06;;;;;;;;;;;14.70;99.90;;;;;;4946598;29;1017;-55
2021/12/18 09:29:33;;;;;;;;;;;14.60;99.90;;;;;;4955169;29;882;-55
2021/12/18 09:31:59;;;;;;;;;;;14.60;99.90;;;;;;4911129;29;1774;-55
2021/12/18 09:34:27;;;;;;;;;;;14.60;99.90;;;;;;4941199;29;1444;-55
2021/12/18 09:36:53;;;;;;;;;;;14.50;99.90;;;;;;4938994;29;913;-55
2021/12/18 09:39:19;;;;;;;;;;;14.50;99.90;;;;;;4937408;29;1903;-54
2021/12/18 09:41:47;;;;;;;;;;;14.40;99.90;;;;;;4937547;29;889;-53
2021/12/18 09:44:13;;;;;;;;;;;14.40;99.90;;;;;;4988268;28;814;-53
2021/12/18 09:46:39;;;;;;;;;;;14.30;99.90;;;;;;5000480;28;889;-53
2021/12/18 09:49:06;;;;;;;;;;;14.30;99.90;;;;;;4983480;28;861;-54
2021/12/18 09:51:35;;;;;;;;;;;14.30;99.90;;;;;;4996073;28;1161;-54
2021/12/18 09:54:03;;;;;;;;;;;14.20;99.90;;;;;;4997901;28;819;-53
2021/12/18 09:56:29;;;;;;;;;;;14.20;99.90;;;;;;5000450;28;881;-55
2021/12/18 09:58:56;;;;;;;;;;;14.20;99.90;;;;;;5000166;28;1903;-55
2021/12/18 10:01:22;;;;;;;;;;;14.20;99.90;;;;;;5000660;28;820;-55
2021/12/18 10:03:49;;;;;;;;;;;14.20;99.90;;;;;;4997237;28;802;-54
2021/12/18 10:06:36;;;;;;;;;;;14.20;99.90;;;;;;5000414;28;869;-54
2021/12/18 10:09:06;;;;;;;;;;;14.20;99.90;;;;;;5000142;28;905;-53
2021/12/18 10:11:35;;;;;;;;;;;14.20;99.90;;;;;;5000172;28;873;-55
2021/12/18 10:14:03;;;;;;;;;;;14.20;99.90;;;;;;5000144;28;861;-55
2021/12/18 10:16:30;;;;;;;;;;;14.20;99.90;;;;;;5000089;28;914;-55
2021/12/18 10:18:57;;;;;;;;;;;14.20;99.90;;;;;;5000109;28;1955;-54
2021/12/18 10:21:24;;;;;;;;;;;14.20;99.90;;;;;;5002989;28;1105;-53
2021/12/18 10:23:51;;;;;;;;;;;14.20;99.90;;;;;;5018364;28;889;-53
2021/12/18 10:26:31;;;;;;;;;;;14.20;99.90;;;;;;5019737;28;817;-54
2021/12/18 10:28:57;;;;;;;;;;;14.20;99.90;;;;;;5019775;28;798;-53
2021/12/18 10:31:40;;;;;;;;;;;14.20;99.90;;;;;;5019369;28;835;-55
2021/12/18 10:34:12;;;;;;;;;;;14.20;99.90;;;;;;5018938;28;1016;-55
2021/12/18 10:36:40;;;;;;;;;;;14.20;99.90;;;;;;5019604;28;805;-55
2021/12/18 10:39:17;;;;;;;;;;;14.20;99.90;;;;;;5019296;28;1910;-55
2021/12/18 10:41:43;;;;;;;;;;;14.20;99.90;;;;;;5019309;28;1288;-55
2021/12/18 10:44:28;;;;;;;;;;;14.20;99.90;;;;;;5019600;28;862;-55
2021/12/18 10:46:54;;;;;;;;;;;14.20;99.90;;;;;;5019170;28;794;-55
2021/12/18 10:49:22;;;;;;;;;;;14.20;99.90;;;;;;5019097;28;882;-55
2021/12/18 10:51:50;;;;;;;;;;;14.20;99.90;;;;;;5019015;28;906;-55
2021/12/18 10:54:22;;;;;;;;;;;14.30;99.90;;;;;;5018651;28;892;-56
2021/12/18 10:56:53;;;;;;;;;;;14.30;99.90;;;;;;5017728;28;806;-54
2021/12/18 10:59:21;;;;;;;;;;;14.30;99.90;;;;;;5018154;28;1966;-54
2021/12/18 11:01:52;;;;;;;;;;;14.30;99.90;;;;;;5019022;28;868;-54
2021/12/18 11:04:25;;;;;;;;;;;14.20;99.90;;;;;;5018392;28;1055;-54
2021/12/18 11:06:51;;;;;;;;;;;14.20;99.90;;;;;;5018879;28;817;-55
2021/12/18 11:09:27;;;;;;;;;;;14.20;99.90;;;;;;5018454;28;1562;-54
2021/12/18 11:14:40;;;;;;;;;;;14.20;99.90;;;;;;5018615;28;921;-55
2021/12/18 11:17:10;;;;;;;;;;;14.20;99.90;;;;;;5019498;28;1262;-55
2021/12/18 11:19:37;;;;;;;;;;;14.20;99.90;;;;;;5018471;28;1959;-55
2021/12/18 11:22:08;;;;;;;;;;;14.20;99.90;;;;;;5000838;28;1170;-53
2021/12/18 11:24:36;;;;;;;;;;;14.10;99.90;;;;;;5018318;28;940;-54
2021/12/18 11:27:11;;;;;;;;;;;14.10;99.90;;;;;;5017967;28;1375;-55
2021/12/18 11:29:51;;;;;;;;;;;14.10;99.90;;;;;;5017767;28;864;-54
2021/12/18 11:32:22;;;;;;;;;;;14.10;99.90;;;;;;5018685;28;785;-53
2021/12/18 11:34:49;;;;;;;;;;;14.10;99.90;;;;;;5017901;28;869;-55
2021/12/18 11:37:17;;;;;;;;;;;14.10;99.90;;;;;;5018392;28;864;-55
2021/12/18 11:39:47;;;;;;;;;;;14.10;99.90;;;;;;5018224;28;1906;-54
2021/12/18 11:42:14;;;;;;;;;;;14.10;99.90;;;;;;5018158;28;904;-55
2021/12/18 11:44:41;;;;;;;;;;;14.10;99.90;;;;;;5017667;28;869;-55
2021/12/18 11:47:28;;;;;;;;;;;14.10;99.90;;;;;;5017401;28;710;-54
2021/12/18 11:49:56;;;;;;;;;;;14.10;99.90;;;;;;5017144;28;963;-54
2021/12/18 11:52:22;;;;;;;;;;;14.00;99.90;;;;;;5017714;28;773;-54
2021/12/18 11:54:50;;;;;;;;;;;14.00;99.90;;;;;;5017874;28;888;-53
2021/12/18 11:57:35;;;;;;;;;;;14.00;99.90;;;;;;5017552;28;898;-53
2021/12/18 12:00:01;;;;;;;;;;;14.00;99.90;;;;;;5017527;28;1963;-54
2021/12/18 12:02:47;;;;;;;;;;;14.00;99.90;;;;;;5036071;28;834;-53
2021/12/18 12:05:16;;;;;;;;;;;14.00;99.90;;;;;;5035539;28;1674;-54
2021/12/18 12:07:45;;;;;;;;;;;14.00;99.90;;;;;;5034219;28;940;-55
2021/12/18 12:10:48;;;;;;;;;;;14.00;99.90;;;;;;5035771;28;852;-55
2021/12/18 12:13:16;;;;;;;;;;;14.00;99.90;;;;;;5035656;28;970;-54
2021/12/18 12:15:51;;;;;;;;;;;14.00;99.90;;;;;;5035237;28;863;-53
2021/12/18 12:18:18;;;;;;;;;;;14.00;99.90;;;;;;5034385;28;991;-55
2021/12/18 12:20:50;;;;;;;;;;;14.00;99.90;;;;;;5033200;28;1898;-55
2021/12/18 12:23:18;;;;;;;;;;;14.00;99.90;;;;;;5017218;28;1359;-54
2021/12/18 12:25:51;;;;;;;;;;;14.00;99.90;;;;;;5017440;28;944;-53
2021/12/18 12:28:25;;;;;;;;;;;14.10;99.90;;;;;;5017340;28;841;-55
2021/12/18 12:30:57;;;;;;;;;;;14.00;99.90;;;;;;5017297;28;933;-55
2021/12/18 12:33:43;;;;;;;;;;;14.00;99.90;;;;;;5017141;28;865;-55
2021/12/18 12:36:12;;;;;;;;;;;14.00;99.90;;;;;;5015894;28;896;-55
2021/12/18 12:38:42;;;;;;;;;;;14.00;99.90;;;;;;5016830;28;960;-55
2021/12/18 12:41:27;;;;;;;;;;;14.00;99.90;;;;;;5016922;28;860;-55
2021/12/18 12:43:57;;;;;;;;;;;14.00;99.90;;;;;;5016807;28;913;-55
2021/12/18 12:46:25;;;;;;;;;;;14.00;99.90;;;;;;5017069;28;920;-56
2021/12/18 12:49:04;;;;;;;;;;;14.00;99.90;;;;;;5017356;28;831;-55
2021/12/18 12:51:54;;;;;;;;;;;14.00;99.90;;;;;;5014944;28;929;-56
2021/12/18 12:54:39;;;;;;;;;;;14.00;99.90;;;;;;5007938;28;894;-56
2021/12/18 12:57:30;;;;;;;;;;;14.00;99.90;;;;;;5034599;28;1006;-54
2021/12/18 12:59:59;;;;;;;;;;;14.00;99.90;;;;;;5021885;28;1973;-56
2021/12/18 13:02:44;;;;;;;;;;;14.00;99.90;;;;;;5035391;28;852;-54
2021/12/18 13:05:11;;;;;;;;;;;14.00;99.90;;;;;;5034206;28;918;-55
2021/12/18 13:07:46;;;;;;;;;;;14.00;99.90;;;;;;5035243;28;985;-54
2021/12/18 13:10:17;;;;;;;;;;;14.00;99.90;;;;;;5034977;28;978;-54
2021/12/18 13:12:50;;;;;;;;;;;14.00;99.90;;;;;;5034904;28;848;-55
2021/12/18 13:15:17;;;;;;;;;;;14.00;99.90;;;;;;5028211;28;1202;-55
2021/12/18 13:17:43;;;;;;;;;;;13.90;99.90;;;;;;5033058;28;944;-55
2021/12/18 13:20:09;;;;;;;;;;;13.90;99.90;;;;;;5017895;28;1969;-55
2021/12/18 13:22:36;;;;;;;;;;;13.90;99.90;;;;;;5022615;28;1052;-55
2021/12/18 13:25:05;;;;;;;;;;;13.90;99.90;;;;;;5038984;28;872;-55
2021/12/18 13:27:32;;;;;;;;;;;13.90;99.90;;;;;;5038848;28;973;-55
2021/12/18 13:30:16;;;;;;;;;;;13.90;99.90;;;;;;5017474;28;884;-55
2021/12/18 13:33:04;;;;;;;;;;;13.90;99.90;;;;;;5020473;28;913;-55
2021/12/18 13:35:31;;;;;;;;;;;13.90;99.90;;;;;;5020641;28;857;-55
2021/12/18 13:38:16;;;;;;;;;;;13.90;99.90;;;;;;5020658;28;823;-55
2021/12/18 13:40:47;;;;;;;;;;;13.80;99.90;;;;;;5020393;28;1969;-56
2021/12/18 13:43:15;;;;;;;;;;;13.80;99.90;;;;;;5020704;28;931;-56
2021/12/18 13:45:50;;;;;;;;;;;13.80;99.90;;;;;;5020712;28;809;-55
2021/12/18 13:48:17;;;;;;;;;;;13.80;99.90;;;;;;5020186;28;846;-56
2021/12/18 13:50:50;;;;;;;;;;;13.80;99.90;;;;;;5022119;28;932;-55
2021/12/18 13:53:16;;;;;;;;;;;13.80;99.90;;;;;;5038671;28;871;-55
2021/12/18 13:55:44;;;;;;;;;;;13.80;99.90;;;;;;5038203;28;810;-55
2021/12/18 13:58:18;;;;;;;;;;;13.80;99.90;;;;;;5037810;28;893;-55
2021/12/18 14:00:49;;;;;;;;;;;13.80;99.90;;;;;;5038062;28;1903;-56
2021/12/18 14:03:19;;;;;;;;;;;13.80;99.90;;;;;;5038198;28;862;-55
2021/12/18 14:05:46;;;;;;;;;;;13.80;99.90;;;;;;5018838;28;869;-55
2021/12/18 14:08:12;;;;;;;;;;;13.80;99.90;;;;;;5019878;28;853;-55
2021/12/18 14:10:39;;;;;;;;;;;13.80;99.90;;;;;;5018192;28;848;-55
2021/12/18 14:13:05;;;;;;;;;;;13.80;99.90;;;;;;5037673;28;892;-55
2021/12/18 14:15:31;;;;;;;;;;;13.80;99.90;;;;;;5037977;28;889;-55
2021/12/18 14:18:00;;;;;;;;;;;13.80;99.90;;;;;;5038118;28;892;-55
2021/12/18 14:20:27;;;;;;;;;;;13.80;99.90;;;;;;5037367;28;1898;-55
2021/12/18 14:22:58;;;;;;;;;;;13.80;99.90;;;;;;5024730;28;1059;-55
2021/12/18 14:25:24;;;;;;;;;;;13.80;99.90;;;;;;5019602;28;759;-55
2021/12/18 14:27:52;;;;;;;;;;;13.80;99.90;;;;;;5019541;28;1083;-55
2021/12/18 14:30:23;;;;;;;;;;;13.80;99.90;;;;;;5001007;28;1014;-55
2021/12/18 14:33:03;;;;;;;;;;;13.80;99.90;;;;;;5018228;28;916;-55
2021/12/18 14:35:31;;;;;;;;;;;13.80;99.90;;;;;;5018569;28;807;-55
2021/12/18 14:38:01;;;;;;;;;;;13.80;99.90;;;;;;5019070;28;836;-55
2021/12/18 14:40:29;;;;;;;;;;;13.80;99.90;;;;;;5019290;28;1898;-55
2021/12/18 14:43:00;;;;;;;;;;;13.80;99.90;;;;;;5019357;28;877;-55
2021/12/18 14:45:28;;;;;;;;;;;13.80;99.90;;;;;;5019235;28;879;-55
2021/12/18 14:47:56;;;;;;;;;;;13.80;99.90;;;;;;5018606;28;826;-55
2021/12/18 14:50:38;;;;;;;;;;;13.80;99.90;;;;;;5017711;28;984;-55
2021/12/18 14:53:13;;;;;;;;;;;13.80;99.90;;;;;;5016842;28;930;-55
2021/12/18 14:55:53;;;;;;;;;;;13.80;99.90;;;;;;5018988;28;928;-55
2021/12/18 14:58:23;;;;;;;;;;;13.80;99.90;;;;;;5018520;28;924;-55
2021/12/18 15:00:51;;;;;;;;;;;13.80;99.90;;;;;;5018394;28;1906;-55
2021/12/18 15:03:28;;;;;;;;;;;13.80;99.90;;;;;;5018564;28;913;-55
2021/12/18 15:06:16;;;;;;;;;;;13.80;99.90;;;;;;5018640;28;1549;-55
2021/12/18 15:09:00;;;;;;;;;;;13.80;99.90;;;;;;5017105;28;775;-54
2021/12/18 15:11:27;;;;;;;;;;;13.80;99.90;;;;;;5019309;28;960;-54
2021/12/18 15:13:55;;;;;;;;;;;13.80;99.90;;;;;;5018367;28;906;-55
2021/12/18 15:16:21;;;;;;;;;;;13.80;99.90;;;;;;5000958;28;1003;-55
2021/12/18 15:18:47;;;;;;;;;;;13.80;99.90;;;;;;5016897;28;1637;-55
2021/12/18 15:21:14;;;;;;;;;;;13.80;99.90;;;;;;5022952;28;1910;-54
2021/12/18 15:23:40;;;;;;;;;;;13.80;99.90;;;;;;5037079;28;842;-55
2021/12/18 15:26:07;;;;;;;;;;;13.80;99.90;;;;;;5030825;28;1301;-55
2021/12/18 15:28:35;;;;;;;;;;;13.80;99.90;;;;;;5036153;28;1323;-55
2021/12/18 15:31:01;;;;;;;;;;;13.80;99.90;;;;;;5036532;28;919;-55
2021/12/18 15:33:27;;;;;;;;;;;13.80;99.90;;;;;;5015011;28;976;-55
2021/12/18 15:35:53;;;;;;;;;;;13.80;99.90;;;;;;5014651;28;826;-55